createdAt,value
2022-12-18T00:01:24.884Z,23.98
2022-12-18T00:03:53.168Z,23.92
2022-12-18T00:06:21.338Z,23.87
2022-12-18T00:08:48.919Z,24.30
2022-12-18T00:11:21.641Z,24.18
2022-12-18T00:13:49.543Z,24.09
2022-12-18T00:16:19.455Z,23.59
2022-12-18T00:18:46.165Z,23.18
2022-12-18T00:21:13.824Z,23.24
2022-12-18T00:23:43.415Z,23.18
2022-12-18T00:26:36.474Z,23.00
2022-12-18T00:29:06.937Z,23.52
2022-12-18T00:31:34.699Z,23.16
2022-12-18T00:34:01.893Z,23.65
2022-12-18T00:36:32.201Z,23.31
2022-12-18T00:39:01.236Z,23.44
2022-12-18T00:41:28.965Z,23.42
2022-12-18T00:43:56.565Z,22.84
2022-12-18T00:46:23.156Z,22.54
2022-12-18T00:48:49.778Z,23.04
2022-12-18T00:51:16.385Z,23.15
2022-12-18T00:53:42.984Z,23.15
2022-12-18T00:56:09.644Z,23.05
2022-12-18T00:58:37.652Z,22.84
2022-12-18T01:01:08.202Z,22.36
2022-12-18T01:03:34.971Z,22.73
2022-12-18T01:06:10.465Z,22.48
2022-12-18T01:08:37.258Z,21.99
2022-12-18T01:11:14.478Z,22.17
2022-12-18T01:13:41.482Z,22.31
2022-12-18T01:16:09.659Z,22.22
2022-12-18T01:18:36.891Z,23.48
2022-12-18T01:21:08.729Z,22.90
2022-12-18T01:23:36.584Z,22.89
2022-12-18T01:26:26.271Z,23.74
2022-12-18T01:28:54.756Z,24.56
2022-12-18T01:31:28.584Z,24.60
2022-12-18T01:33:56.796Z,24.31
2022-12-18T01:36:27.348Z,23.90
2022-12-18T01:38:55.230Z,24.43
2022-12-18T01:41:24.720Z,24.29
2022-12-18T01:43:58.964Z,24.30
2022-12-18T01:46:27.870Z,24.47
2022-12-18T01:49:03.121Z,25.45
2022-12-18T01:51:31.611Z,24.90
2022-12-18T01:54:00.262Z,24.93
2022-12-18T01:56:27.209Z,24.85
2022-12-18T01:59:01.981Z,24.98
2022-12-18T02:01:32.507Z,24.40
2022-12-18T02:04:26.645Z,24.28
2022-12-18T02:07:25.789Z,24.91
2022-12-18T02:09:59.949Z,24.61
2022-12-18T02:12:42.816Z,24.66
2022-12-18T02:15:28.004Z,23.48
2022-12-18T02:18:15.419Z,24.36
2022-12-18T02:20:54.332Z,23.63
2022-12-18T02:23:46.701Z,23.70
2022-12-18T02:26:38.689Z,23.62
2022-12-18T02:29:24.994Z,24.01
2022-12-18T02:31:59.156Z,24.14
2022-12-18T02:34:30.881Z,24.02
2022-12-18T02:37:03.237Z,24.79
2022-12-18T02:39:33.343Z,24.19
2022-12-18T02:42:01.239Z,24.25
2022-12-18T02:44:27.836Z,24.83
2022-12-18T02:46:55.081Z,24.47
2022-12-18T02:49:21.624Z,24.91
2022-12-18T02:52:02.648Z,24.03
2022-12-18T02:54:44.013Z,23.93
2022-12-18T02:57:51.388Z,23.57
2022-12-18T03:00:45.028Z,23.00
2022-12-18T03:03:14.985Z,23.73
2022-12-18T03:05:49.002Z,23.68
2022-12-18T03:08:22.533Z,23.52
2022-12-18T03:11:10.719Z,23.13
2022-12-18T03:13:59.789Z,23.50
2022-12-18T03:16:32.166Z,23.42
2022-12-18T03:19:15.032Z,23.78
2022-12-18T03:21:50.361Z,24.03
2022-12-18T03:24:19.811Z,23.71
2022-12-18T03:26:53.962Z,23.21
2022-12-18T03:29:30.765Z,23.49
2022-12-18T03:32:06.972Z,24.51
2022-12-18T03:34:37.742Z,24.55
2022-12-18T03:37:06.104Z,23.63
2022-12-18T03:39:33.666Z,24.05
2022-12-18T03:42:16.952Z,24.43
2022-12-18T03:45:08.948Z,23.96
2022-12-18T03:47:54.017Z,23.83
2022-12-18T03:50:38.209Z,24.83
2022-12-18T03:53:23.880Z,24.91
2022-12-18T03:55:52.920Z,24.05
2022-12-18T03:58:25.608Z,24.07
2022-12-18T04:00:57.369Z,24.19
2022-12-18T04:03:26.929Z,24.95
2022-12-18T04:05:56.543Z,24.56
2022-12-18T04:08:25.689Z,24.59
2022-12-18T04:10:52.658Z,24.71
2022-12-18T04:13:39.982Z,24.50
2022-12-18T04:16:28.493Z,24.43
2022-12-18T04:18:55.403Z,23.83
2022-12-18T04:21:22.073Z,24.23
2022-12-18T04:23:50.701Z,24.43
2022-12-18T04:26:17.453Z,23.84
2022-12-18T04:28:44.123Z,24.70
2022-12-18T04:31:10.927Z,25.54
2022-12-18T04:33:37.994Z,25.08
2022-12-18T04:36:05.488Z,24.22
2022-12-18T04:38:32.235Z,24.38
2022-12-18T04:40:59.300Z,24.97
2022-12-18T04:43:27.166Z,25.07
2022-12-18T04:45:53.946Z,24.87
2022-12-18T04:48:21.579Z,24.51
2022-12-18T04:50:48.658Z,23.96
2022-12-18T04:53:15.283Z,24.38
2022-12-18T04:55:41.913Z,24.28
2022-12-18T04:58:08.539Z,24.66
2022-12-18T05:00:36.418Z,24.84
2022-12-18T05:03:03.886Z,24.31
2022-12-18T05:05:31.849Z,23.98
2022-12-18T05:07:58.684Z,24.23
2022-12-18T05:10:25.336Z,24.50
2022-12-18T05:12:51.943Z,24.38
2022-12-18T05:15:18.546Z,24.12
2022-12-18T05:17:45.124Z,23.61
2022-12-18T05:20:11.730Z,24.58
2022-12-18T05:22:38.395Z,24.28
2022-12-18T05:25:05.406Z,24.18
2022-12-18T05:27:31.995Z,24.39
2022-12-18T05:29:58.617Z,24.40
2022-12-18T05:32:25.252Z,24.30
2022-12-18T05:34:51.853Z,25.07
2022-12-18T05:37:18.441Z,25.39
2022-12-18T05:39:45.196Z,25.91
2022-12-18T05:42:11.850Z,25.47
2022-12-18T05:44:38.497Z,25.44
2022-12-18T05:47:05.271Z,25.68
2022-12-18T05:49:31.910Z,25.88
2022-12-18T05:51:58.568Z,25.46
2022-12-18T05:54:25.164Z,25.50
2022-12-18T05:56:51.776Z,24.84
2022-12-18T05:59:18.461Z,24.85
2022-12-18T06:01:45.201Z,24.12
2022-12-18T06:04:11.964Z,24.76
2022-12-18T06:06:38.673Z,25.04
2022-12-18T06:09:05.727Z,24.67
2022-12-18T06:11:33.078Z,24.79
2022-12-18T06:14:00.290Z,25.03
2022-12-18T06:16:29.231Z,24.49
2022-12-18T06:19:02.676Z,24.53
2022-12-18T06:21:29.997Z,25.53
2022-12-18T06:23:56.901Z,24.18
2022-12-18T06:26:28.089Z,24.14
2022-12-18T06:28:55.429Z,24.65
2022-12-18T06:31:22.078Z,24.52
2022-12-18T06:33:48.738Z,25.04
2022-12-18T06:36:15.369Z,25.10
2022-12-18T06:38:43.825Z,25.04
2022-12-18T06:41:11.528Z,24.63
2022-12-18T06:43:38.893Z,25.94
2022-12-18T06:46:06.717Z,25.78
2022-12-18T06:48:34.160Z,25.98
2022-12-18T06:51:01.265Z,25.89
2022-12-18T06:53:28.429Z,25.05
2022-12-18T06:56:09.469Z,24.99
2022-12-18T06:58:36.861Z,24.57
2022-12-18T07:01:06.524Z,23.12
2022-12-18T07:03:33.407Z,23.68
2022-12-18T07:06:00.092Z,22.59
2022-12-18T07:08:27.090Z,23.07
2022-12-18T07:10:56.300Z,23.72
2022-12-18T07:13:23.484Z,24.20
2022-12-18T07:15:50.760Z,22.71
2022-12-18T07:18:17.409Z,20.90
2022-12-18T07:20:44.004Z,21.38
2022-12-18T07:23:10.631Z,22.79
2022-12-18T07:25:38.096Z,22.35
2022-12-18T07:28:05.301Z,21.18
2022-12-18T07:30:32.216Z,20.35
2022-12-18T07:32:58.849Z,19.57
2022-12-18T07:35:25.646Z,18.96
2022-12-18T07:37:52.331Z,19.32
2022-12-18T07:40:19.061Z,19.47
2022-12-18T07:42:45.758Z,20.84
2022-12-18T07:45:12.392Z,20.63
2022-12-18T07:47:39.050Z,19.06
2022-12-18T07:50:06.561Z,19.84
2022-12-18T07:52:33.221Z,19.86
2022-12-18T07:55:00.056Z,20.25
2022-12-18T07:57:49.369Z,19.36
2022-12-18T08:00:13.955Z,19.76
2022-12-18T08:02:40.713Z,20.18
2022-12-18T08:05:09.336Z,19.82
2022-12-18T08:07:35.935Z,19.69
2022-12-18T08:10:02.681Z,18.56
2022-12-18T08:12:30.139Z,18.88
2022-12-18T08:14:56.729Z,20.65
2022-12-18T08:17:23.339Z,19.52
2022-12-18T08:19:50.226Z,19.65
2022-12-18T08:22:16.922Z,19.69
2022-12-18T08:24:43.766Z,19.58
2022-12-18T08:27:28.980Z,19.98
2022-12-18T08:29:56.934Z,19.33
2022-12-18T08:32:24.054Z,18.66
2022-12-18T08:34:50.764Z,18.38
2022-12-18T08:37:17.369Z,19.29
2022-12-18T08:39:45.081Z,20.27
2022-12-18T08:42:11.680Z,20.04
2022-12-18T08:44:38.332Z,19.75
2022-12-18T08:47:06.351Z,19.89
2022-12-18T08:49:33.800Z,21.00
2022-12-18T08:52:00.469Z,19.78
2022-12-18T08:54:27.437Z,29.56
2022-12-18T08:56:54.081Z,21.75
2022-12-18T08:59:20.834Z,19.44
2022-12-18T09:01:48.674Z,19.68
2022-12-18T09:04:15.930Z,20.04
2022-12-18T09:06:42.523Z,19.79
2022-12-18T09:09:10.645Z,19.58
2022-12-18T09:11:37.270Z,19.99
2022-12-18T09:14:04.119Z,20.58
2022-12-18T09:16:33.120Z,19.98
2022-12-18T09:19:00.316Z,20.19
2022-12-18T09:21:29.696Z,19.80
2022-12-18T09:23:57.059Z,19.82
2022-12-18T09:26:25.971Z,19.63
2022-12-18T09:28:52.855Z,18.81
2022-12-18T09:31:23.023Z,20.27
2022-12-18T09:33:49.649Z,20.01
2022-12-18T09:36:18.640Z,20.01
2022-12-18T09:38:45.752Z,20.80
2022-12-18T09:41:36.935Z,20.94
2022-12-18T09:44:19.463Z,20.48
2022-12-18T09:46:59.036Z,20.40
2022-12-18T09:49:31.604Z,20.12
2022-12-18T09:52:00.786Z,20.82
2022-12-18T09:54:36.563Z,20.85
2022-12-18T09:57:03.462Z,21.22
2022-12-18T09:59:39.890Z,20.67
2022-12-18T10:02:21.795Z,21.50
2022-12-18T10:05:04.746Z,21.54
2022-12-18T10:07:51.641Z,21.47
2022-12-18T10:10:24.474Z,21.26
2022-12-18T10:13:21.776Z,21.96
2022-12-18T10:16:28.331Z,21.90
2022-12-18T10:19:15.973Z,20.75
2022-12-18T10:21:58.729Z,20.85
2022-12-18T10:24:43.279Z,20.87
2022-12-18T10:27:25.160Z,21.44
2022-12-18T10:29:52.911Z,20.91
2022-12-18T10:32:29.213Z,21.29
2022-12-18T10:35:00.834Z,21.44
2022-12-18T10:37:30.374Z,20.74
2022-12-18T10:40:21.903Z,20.82
2022-12-18T10:43:27.533Z,20.94
2022-12-18T10:46:16.905Z,20.92
2022-12-18T10:48:49.368Z,20.32
2022-12-18T10:51:27.127Z,21.00
2022-12-18T10:54:07.593Z,20.25
2022-12-18T10:56:37.722Z,20.22
2022-12-18T10:59:10.379Z,20.61
2022-12-18T11:01:52.669Z,20.53
2022-12-18T11:04:32.260Z,21.25
2022-12-18T11:07:00.218Z,20.98
2022-12-18T11:09:32.513Z,20.87
2022-12-18T11:12:06.842Z,22.08
2022-12-18T11:14:46.814Z,21.20
2022-12-18T11:17:33.142Z,21.23
2022-12-18T11:20:07.678Z,21.69
2022-12-18T11:22:38.506Z,22.39
2022-12-18T11:25:33.429Z,22.45
2022-12-18T11:28:37.909Z,22.44
2022-12-18T11:31:24.899Z,23.39
2022-12-18T11:34:26.843Z,22.92
2022-12-18T11:36:46.800Z,21.60
2022-12-18T11:39:28.698Z,22.00
2022-12-18T11:42:20.468Z,22.08
2022-12-18T11:45:01.939Z,21.45
2022-12-18T11:47:44.659Z,21.79
2022-12-18T11:50:24.489Z,21.45
2022-12-18T11:52:56.564Z,21.15
2022-12-18T11:55:46.315Z,21.34
2022-12-18T11:58:48.792Z,20.87
2022-12-18T12:01:44.922Z,20.82
2022-12-18T12:04:28.299Z,21.98
2022-12-18T12:07:35.379Z,21.03
2022-12-18T12:10:27.165Z,21.22
2022-12-18T12:13:11.602Z,20.76
2022-12-18T12:15:56.575Z,21.23
2022-12-18T12:18:35.492Z,21.40
2022-12-18T12:21:08.172Z,21.23
2022-12-18T12:23:40.975Z,21.51
2022-12-18T12:26:24.146Z,21.77
2022-12-18T12:29:16.611Z,20.66
2022-12-18T12:31:59.461Z,21.62
2022-12-18T12:34:42.825Z,21.43
2022-12-18T12:37:24.418Z,21.71
2022-12-18T12:39:55.396Z,20.97
2022-12-18T12:42:39.636Z,20.88
2022-12-18T12:45:14.783Z,21.33
2022-12-18T12:47:45.459Z,21.20
2022-12-18T12:50:19.987Z,21.76
2022-12-18T12:52:56.628Z,21.36
2022-12-18T12:55:27.649Z,20.55
2022-12-18T12:58:02.684Z,20.79
2022-12-18T13:00:42.413Z,20.20
2022-12-18T13:03:33.929Z,19.61
2022-12-18T13:06:30.685Z,19.77
2022-12-18T13:09:01.233Z,20.21
2022-12-18T13:11:46.895Z,19.81
2022-12-18T13:14:24.249Z,20.52
2022-12-18T13:16:52.413Z,20.60
2022-12-18T13:19:26.512Z,20.39
2022-12-18T13:21:56.294Z,20.67
2022-12-18T13:24:31.374Z,20.26
2022-12-18T13:26:58.114Z,20.76
2022-12-18T13:29:43.143Z,19.89
2022-12-18T13:32:23.485Z,20.04
2022-12-18T13:35:19.094Z,20.49
2022-12-18T13:37:55.496Z,20.57
2022-12-18T13:40:47.867Z,20.95
2022-12-18T13:43:20.282Z,20.59
2022-12-18T13:46:03.155Z,20.16
2022-12-18T13:48:35.341Z,21.17
2022-12-18T13:51:01.953Z,21.32
2022-12-18T13:53:34.021Z,21.32
2022-12-18T13:56:01.086Z,21.11
2022-12-18T13:58:27.891Z,21.50
2022-12-18T14:00:55.136Z,20.72
2022-12-18T14:03:26.028Z,20.99
2022-12-18T14:06:01.147Z,21.37
2022-12-18T14:08:36.003Z,21.95
2022-12-18T14:11:06.476Z,21.50
2022-12-18T14:13:40.615Z,21.92
2022-12-18T14:16:12.250Z,22.07
2022-12-18T14:18:47.640Z,21.70
2022-12-18T14:21:21.891Z,21.57
2022-12-18T14:23:48.944Z,21.25
2022-12-18T14:26:25.886Z,21.02
2022-12-18T14:28:52.613Z,21.31
2022-12-18T14:31:25.893Z,21.44
2022-12-18T14:33:53.289Z,21.40
2022-12-18T14:36:27.526Z,21.90
2022-12-18T14:38:59.531Z,21.47
2022-12-18T14:41:27.553Z,21.62
2022-12-18T14:43:55.561Z,22.29
2022-12-18T14:46:29.151Z,22.64
2022-12-18T14:48:57.313Z,22.73
2022-12-18T14:51:27.316Z,22.47
2022-12-18T14:54:02.796Z,22.56
2022-12-18T14:56:36.335Z,22.86
2022-12-18T14:59:24.174Z,22.40
2022-12-18T15:02:10.344Z,22.00
2022-12-18T15:04:42.076Z,22.04
2022-12-18T15:07:15.622Z,22.07
2022-12-18T15:10:05.148Z,22.00
2022-12-18T15:12:39.868Z,21.97
2022-12-18T15:15:35.626Z,21.78
2022-12-18T15:18:06.114Z,21.66
2022-12-18T15:20:40.593Z,21.86
2022-12-18T15:23:15.690Z,22.55
2022-12-18T15:25:42.665Z,22.97
2022-12-18T15:28:30.216Z,22.76
2022-12-18T15:31:15.015Z,23.60
2022-12-18T15:33:53.341Z,23.45
2022-12-18T15:36:26.422Z,22.95
2022-12-18T15:39:04.632Z,22.87
2022-12-18T15:41:35.744Z,22.98
2022-12-18T15:44:04.251Z,23.20
2022-12-18T15:46:31.163Z,23.54
2022-12-18T15:49:02.189Z,23.21
2022-12-18T15:51:34.703Z,23.27
2022-12-18T15:54:05.053Z,24.27
2022-12-18T15:56:32.824Z,24.17
2022-12-18T15:59:01.188Z,23.25
2022-12-18T16:01:31.910Z,24.45
2022-12-18T16:03:58.685Z,25.14
2022-12-18T16:06:36.403Z,26.12
2022-12-18T16:09:12.382Z,28.88
2022-12-18T16:11:43.979Z,32.42
2022-12-18T16:14:25.068Z,28.84
2022-12-18T16:17:01.986Z,27.83
2022-12-18T16:19:29.947Z,30.71
2022-12-18T16:21:58.527Z,32.86
2022-12-18T16:24:27.766Z,30.54
2022-12-18T16:26:55.382Z,35.13
2022-12-18T16:29:22.252Z,33.47
2022-12-18T16:31:48.881Z,33.21
2022-12-18T16:34:28.760Z,31.34
2022-12-18T16:37:00.284Z,31.62
2022-12-18T16:39:31.808Z,28.56
2022-12-18T16:41:58.963Z,24.86
2022-12-18T16:44:26.904Z,24.49
2022-12-18T16:46:53.553Z,23.58
2022-12-18T16:49:20.542Z,23.25
2022-12-18T16:51:47.522Z,23.31
2022-12-18T16:54:18.864Z,24.55
2022-12-18T16:56:46.415Z,26.17
2022-12-18T16:59:13.130Z,27.53
2022-12-18T17:01:39.922Z,27.88
2022-12-18T17:04:08.175Z,28.77
2022-12-18T17:06:40.523Z,30.60
2022-12-18T17:09:11.680Z,36.62
2022-12-18T17:11:38.290Z,33.43
2022-12-18T17:14:10.500Z,34.86
2022-12-18T17:16:37.262Z,43.29
2022-12-18T17:19:05.469Z,46.79
2022-12-18T17:21:32.331Z,30.22
2022-12-18T17:24:02.092Z,28.61
2022-12-18T17:26:29.944Z,28.81
2022-12-18T17:28:58.296Z,30.56
2022-12-18T17:31:27.799Z,29.95
2022-12-18T17:33:54.936Z,27.76
2022-12-18T17:36:22.939Z,28.80
2022-12-18T17:38:55.004Z,30.11
2022-12-18T17:41:22.521Z,30.07
2022-12-18T17:44:00.610Z,29.15
2022-12-18T17:46:29.333Z,28.18
2022-12-18T17:48:57.313Z,30.81
2022-12-18T17:51:23.970Z,28.50
2022-12-18T17:53:50.614Z,28.35
2022-12-18T17:56:20.163Z,29.21
2022-12-18T17:58:47.239Z,30.84
2022-12-18T18:01:17.606Z,34.43
2022-12-18T18:03:45.562Z,30.95
2022-12-18T18:06:15.132Z,33.49
2022-12-18T18:08:42.100Z,33.03
2022-12-18T18:11:16.633Z,31.10
2022-12-18T18:13:47.222Z,31.25
2022-12-18T18:16:14.170Z,29.80
2022-12-18T18:18:40.840Z,28.66
2022-12-18T18:21:08.899Z,27.89
2022-12-18T18:23:36.191Z,27.76
2022-12-18T18:26:07.524Z,26.89
2022-12-18T18:28:34.976Z,26.30
2022-12-18T18:31:05.798Z,26.80
2022-12-18T18:33:33.231Z,26.75
2022-12-18T18:36:00.227Z,26.84
2022-12-18T18:38:27.194Z,26.44
2022-12-18T18:41:02.000Z,27.13
2022-12-18T18:43:29.786Z,28.12
2022-12-18T18:46:01.277Z,27.73
2022-12-18T18:48:33.170Z,27.63
2022-12-18T18:51:08.118Z,28.34
2022-12-18T18:53:39.648Z,27.85
2022-12-18T18:56:37.729Z,27.75
2022-12-18T18:58:57.286Z,28.00
2022-12-18T19:01:25.419Z,26.93
2022-12-18T19:03:53.582Z,26.92
2022-12-18T19:06:26.567Z,28.20
2022-12-18T19:08:55.349Z,27.49
2022-12-18T19:11:23.920Z,27.73
2022-12-18T19:13:50.520Z,26.74
2022-12-18T19:16:17.185Z,26.40
2022-12-18T19:18:44.551Z,27.28
2022-12-18T19:21:11.672Z,27.70
2022-12-18T19:23:38.318Z,29.86
2022-12-18T19:28:54.276Z,32.55
2022-12-18T19:31:25.440Z,30.28
2022-12-18T19:33:53.774Z,29.46
2022-12-18T19:36:26.813Z,28.60
2022-12-18T19:38:57.002Z,27.49
2022-12-18T19:41:25.529Z,26.72
2022-12-18T19:43:53.657Z,26.33
2022-12-18T19:46:23.023Z,27.56
2022-12-18T19:48:50.488Z,26.72
2022-12-18T19:51:20.679Z,26.18
2022-12-18T19:53:47.329Z,28.23
2022-12-18T19:56:18.599Z,29.18
2022-12-18T19:58:45.976Z,27.73
2022-12-18T20:01:17.947Z,26.99
2022-12-18T20:03:48.494Z,27.22
2022-12-18T20:06:35.032Z,26.74
2022-12-18T20:09:06.451Z,26.75
2022-12-18T20:11:41.397Z,25.20
2022-12-18T20:14:14.073Z,26.41
2022-12-18T20:16:41.964Z,25.90
2022-12-18T20:19:12.858Z,25.54
2022-12-18T20:21:40.416Z,26.58
2022-12-18T20:24:07.847Z,25.56
2022-12-18T20:26:34.625Z,25.81
2022-12-18T20:29:01.269Z,27.13
2022-12-18T20:31:27.926Z,26.46
2022-12-18T20:34:00.337Z,25.80
2022-12-18T20:36:29.511Z,26.90
2022-12-18T20:38:59.268Z,29.39
2022-12-18T20:41:36.426Z,28.81
2022-12-18T20:44:08.550Z,29.17
2022-12-18T20:46:50.130Z,29.16
2022-12-18T20:49:16.826Z,27.81
2022-12-18T20:51:43.525Z,26.72
2022-12-18T20:54:11.940Z,26.21
2022-12-18T20:56:38.946Z,25.31
2022-12-18T20:59:05.682Z,25.09
2022-12-18T21:01:32.663Z,25.09
2022-12-18T21:03:59.585Z,24.65
2022-12-18T21:06:26.385Z,25.89
2022-12-18T21:08:53.016Z,25.41
2022-12-18T21:11:19.586Z,26.82
2022-12-18T21:13:46.679Z,26.57
2022-12-18T21:16:13.315Z,26.69
2022-12-18T21:18:40.091Z,26.00
2022-12-18T21:21:06.809Z,24.58
2022-12-18T21:23:33.540Z,24.95
2022-12-18T21:26:16.044Z,24.52
2022-12-18T21:28:42.955Z,24.38
2022-12-18T21:31:09.643Z,23.98
2022-12-18T21:33:38.713Z,23.08
2022-12-18T21:36:07.009Z,23.89
2022-12-18T21:38:33.845Z,24.00
2022-12-18T21:41:00.417Z,25.02
2022-12-18T21:43:27.225Z,25.78
2022-12-18T21:45:53.911Z,27.08
2022-12-18T21:48:20.581Z,26.38
2022-12-18T21:50:47.176Z,25.63
2022-12-18T21:53:13.791Z,25.80
2022-12-18T21:55:40.377Z,24.58
2022-12-18T21:58:07.132Z,25.72
2022-12-18T22:00:33.741Z,24.01
2022-12-18T22:03:17.275Z,23.13
2022-12-18T22:05:45.850Z,22.75
2022-12-18T22:08:14.151Z,22.69
2022-12-18T22:10:41.177Z,22.57
2022-12-18T22:13:07.857Z,22.45
2022-12-18T22:15:34.589Z,22.48
2022-12-18T22:18:01.243Z,21.98
2022-12-18T22:20:29.274Z,22.09
2022-12-18T22:22:56.869Z,21.05
2022-12-18T22:25:23.531Z,21.13
2022-12-18T22:27:50.180Z,20.17
2022-12-18T22:30:16.858Z,21.78
2022-12-18T22:32:43.535Z,21.05
2022-12-18T22:35:15.630Z,20.75
2022-12-18T22:37:42.686Z,19.71
2022-12-18T22:40:23.888Z,21.56
2022-12-18T22:42:52.647Z,23.15
2022-12-18T22:45:20.149Z,22.36
2022-12-18T22:47:46.765Z,22.44
2022-12-18T22:50:14.004Z,22.16
2022-12-18T22:52:40.865Z,23.34
2022-12-18T22:55:07.810Z,23.50
2022-12-18T22:57:34.580Z,23.86
2022-12-18T23:00:02.171Z,24.85
2022-12-18T23:02:29.040Z,24.62
2022-12-18T23:04:55.975Z,25.46
2022-12-18T23:07:22.577Z,25.43
2022-12-18T23:09:50.519Z,24.87
2022-12-18T23:12:19.080Z,24.24
2022-12-18T23:14:46.000Z,23.84
2022-12-18T23:17:13.007Z,23.15
2022-12-18T23:19:44.039Z,22.91
2022-12-18T23:22:13.861Z,23.16
2022-12-18T23:24:40.510Z,22.29
2022-12-18T23:27:11.368Z,23.12
2022-12-18T23:29:39.406Z,23.35
2022-12-18T23:32:06.152Z,22.55
2022-12-18T23:34:32.768Z,23.13
2022-12-18T23:36:59.880Z,21.74
2022-12-18T23:39:29.304Z,22.03
2022-12-18T23:42:00.336Z,20.46
2022-12-18T23:44:27.692Z,21.01
2022-12-18T23:46:55.217Z,21.25
2022-12-18T23:49:22.351Z,22.01
2022-12-18T23:51:49.424Z,20.16
2022-12-18T23:54:16.051Z,18.73
2022-12-18T23:56:42.913Z,19.11
2022-12-18T23:59:09.718Z,17.91
